sensor_id;sensor_type;location;lat;lon;timestamp;pressure;altitude;pressure_sealevel;temperature;humidity
32197;BME280;18697;42.770;23.400;2023-03-13T00:01:30;95913.09;;;3.94;58.61
32197;BME280;18697;42.770;23.400;2023-03-13T00:03:56;95910.78;;;3.89;58.82
32197;BME280;18697;42.770;23.400;2023-03-13T00:06:23;95918.31;;;3.85;58.59
32197;BME280;18697;42.770;23.400;2023-03-13T00:08:49;95919.81;;;3.89;58.87
32197;BME280;18697;42.770;23.400;2023-03-13T00:11:15;95913.19;;;3.87;58.71
32197;BME280;18697;42.770;23.400;2023-03-13T00:13:42;95920.56;;;3.93;58.94
32197;BME280;18697;42.770;23.400;2023-03-13T00:16:13;95914.63;;;3.95;58.80
32197;BME280;18697;42.770;23.400;2023-03-13T00:18:44;95921.28;;;3.97;58.68
32197;BME280;18697;42.770;23.400;2023-03-13T00:21:10;95922.88;;;3.95;58.22
32197;BME280;18697;42.770;23.400;2023-03-13T00:23:37;95934.66;;;3.95;58.44
32197;BME280;18697;42.770;23.400;2023-03-13T00:26:05;95932.69;;;3.96;58.46
32197;BME280;18697;42.770;23.400;2023-03-13T00:28:32;95942.50;;;3.97;58.63
32197;BME280;18697;42.770;23.400;2023-03-13T00:31:18;95943.59;;;4.03;58.93
32197;BME280;18697;42.770;23.400;2023-03-13T00:33:45;95941.25;;;4.02;57.90
32197;BME280;18697;42.770;23.400;2023-03-13T00:36:16;95924.50;;;3.92;57.40
32197;BME280;18697;42.770;23.400;2023-03-13T00:38:43;95928.47;;;3.88;57.95
32197;BME280;18697;42.770;23.400;2023-03-13T00:41:11;95928.53;;;3.84;58.14
32197;BME280;18697;42.770;23.400;2023-03-13T00:43:37;95926.19;;;3.83;58.21
32197;BME280;18697;42.770;23.400;2023-03-13T00:46:03;95928.47;;;3.88;58.09
32197;BME280;18697;42.770;23.400;2023-03-13T00:48:29;95935.63;;;3.82;58.41
32197;BME280;18697;42.770;23.400;2023-03-13T00:50:54;95929.31;;;3.85;58.05
32197;BME280;18697;42.770;23.400;2023-03-13T00:53:20;95936.31;;;3.89;58.13
32197;BME280;18697;42.770;23.400;2023-03-13T00:56:05;95930.81;;;3.89;58.26
32197;BME280;18697;42.770;23.400;2023-03-13T00:58:37;95928.47;;;3.88;57.35
32197;BME280;18697;42.770;23.400;2023-03-13T01:03:41;95926.13;;;3.86;57.63
32197;BME280;18697;42.770;23.400;2023-03-13T01:06:09;95925.03;;;3.80;57.78
32197;BME280;18697;42.770;23.400;2023-03-13T01:08:35;95926.22;;;3.79;57.66
32197;BME280;18697;42.770;23.400;2023-03-13T01:11:06;95925.03;;;3.80;57.78
32197;BME280;18697;42.770;23.400;2023-03-13T01:13:32;95924.84;;;3.68;58.14
32197;BME280;18697;42.770;23.400;2023-03-13T01:16:18;95926.47;;;3.61;58.32
32197;BME280;18697;42.770;23.400;2023-03-13T01:18:50;95925.88;;;3.47;58.61
32197;BME280;18697;42.770;23.400;2023-03-13T01:21:16;95929.56;;;3.33;59.31
32197;BME280;18697;42.770;23.400;2023-03-13T01:23:44;95936.97;;;3.36;59.98
32197;BME280;18697;42.770;23.400;2023-03-13T01:26:09;95926.81;;;3.33;59.98
32197;BME280;18697;42.770;23.400;2023-03-13T01:28:36;95928.44;;;3.27;60.19
32197;BME280;18697;42.770;23.400;2023-03-13T01:31:10;95942.69;;;3.15;60.28
32197;BME280;18697;42.770;23.400;2023-03-13T01:33:36;95932.88;;;3.17;60.44
32197;BME280;18697;42.770;23.400;2023-03-13T01:36:02;95951.34;;;3.13;60.53
32197;BME280;18697;42.770;23.400;2023-03-13T01:38:28;95945.06;;;3.13;60.34
32197;BME280;18697;42.770;23.400;2023-03-13T01:40:53;95946.63;;;3.14;59.99
32197;BME280;18697;42.770;23.400;2023-03-13T01:43:22;95957.63;;;3.10;59.97
32197;BME280;18697;42.770;23.400;2023-03-13T01:51:12;95950.75;;;2.95;60.04
32197;BME280;18697;42.770;23.400;2023-03-13T01:53:41;95946.75;;;3.00;59.62
32197;BME280;18697;42.770;23.400;2023-03-13T01:56:13;95946.41;;;2.97;59.68
32197;BME280;18697;42.770;23.400;2023-03-13T01:58:39;95949.19;;;2.94;59.75
32197;BME280;18697;42.770;23.400;2023-03-13T02:01:04;95947.28;;;2.91;59.81
32197;BME280;18697;42.770;23.400;2023-03-13T02:03:31;95962.53;;;2.92;59.71
32197;BME280;18697;42.770;23.400;2023-03-13T02:05:58;95962.44;;;2.99;59.80
32197;BME280;18697;42.770;23.400;2023-03-13T02:08:39;95954.28;;;2.95;59.57
32197;BME280;18697;42.770;23.400;2023-03-13T02:14:11;95963.25;;;2.51;60.78
32197;BME280;18697;42.770;23.400;2023-03-13T02:16:37;95964.06;;;2.48;61.34
32197;BME280;18697;42.770;23.400;2023-03-13T02:19:16;95962.16;;;2.42;61.52
32197;BME280;18697;42.770;23.400;2023-03-13T02:24:35;95973.69;;;2.19;62.77
32197;BME280;18697;42.770;23.400;2023-03-13T02:27:02;95969.44;;;2.07;63.50
32197;BME280;18697;42.770;23.400;2023-03-13T02:29:28;95972.94;;;2.15;63.61
32197;BME280;18697;42.770;23.400;2023-03-13T02:31:54;95979.56;;;2.21;63.66
32197;BME280;18697;42.770;23.400;2023-03-13T02:34:26;95986.50;;;2.33;63.69
32197;BME280;18697;42.770;23.400;2023-03-13T02:36:53;96001.38;;;2.35;62.47
32197;BME280;18697;42.770;23.400;2023-03-13T02:39:20;96009.56;;;2.39;61.87
32197;BME280;18697;42.770;23.400;2023-03-13T02:41:47;96003.38;;;2.24;61.39
32197;BME280;18697;42.770;23.400;2023-03-13T02:44:14;96011.69;;;2.13;61.11
32197;BME280;18697;42.770;23.400;2023-03-13T02:46:47;96017.63;;;2.05;61.26
32197;BME280;18697;42.770;23.400;2023-03-13T02:51:48;96025.44;;;2.06;61.72
32197;BME280;18697;42.770;23.400;2023-03-13T02:54:21;96029.72;;;2.11;61.58
32197;BME280;18697;42.770;23.400;2023-03-13T02:56:51;96023.88;;;2.05;61.11
32197;BME280;18697;42.770;23.400;2023-03-13T02:59:18;96009.78;;;2.03;61.31
32197;BME280;18697;42.770;23.400;2023-03-13T03:01:43;96011.69;;;2.13;61.48
32197;BME280;18697;42.770;23.400;2023-03-13T03:04:10;96015.59;;;2.19;61.38
32197;BME280;18697;42.770;23.400;2023-03-13T03:06:35;96022.69;;;2.10;61.13
32197;BME280;18697;42.770;23.400;2023-03-13T03:09:01;96013.25;;;2.14;61.53
32197;BME280;18697;42.770;23.400;2023-03-13T03:11:26;96013.69;;;2.09;61.61
32197;BME280;18697;42.770;23.400;2023-03-13T03:13:52;96023.84;;;2.09;61.87
32197;BME280;18697;42.770;23.400;2023-03-13T03:16:17;96038.31;;;2.16;61.51
32197;BME280;18697;42.770;23.400;2023-03-13T03:18:43;96043.69;;;2.27;61.66
32197;BME280;18697;42.770;23.400;2023-03-13T03:21:08;96053.84;;;2.34;61.37
32197;BME280;18697;42.770;23.400;2023-03-13T03:23:35;96063.22;;;2.40;60.93
32197;BME280;18697;42.770;23.400;2023-03-13T03:26:02;96062.41;;;2.43;60.06
32197;BME280;18697;42.770;23.400;2023-03-13T03:28:28;96061.63;;;2.42;59.59
32197;BME280;18697;42.770;23.400;2023-03-13T03:30:54;96060.06;;;2.45;59.54
32197;BME280;18697;42.770;23.400;2023-03-13T03:33:20;96056.22;;;2.31;59.77
32197;BME280;18697;42.770;23.400;2023-03-13T03:35:47;96046.16;;;2.14;59.54
32197;BME280;18697;42.770;23.400;2023-03-13T03:38:13;96049.72;;;2.01;60.30
32197;BME280;18697;42.770;23.400;2023-03-13T03:40:38;96059.09;;;2.07;60.75
32197;BME280;18697;42.770;23.400;2023-03-13T03:43:03;96071.19;;;2.13;61.36
32197;BME280;18697;42.770;23.400;2023-03-13T03:45:29;96089.56;;;2.19;61.24
32197;BME280;18697;42.770;23.400;2023-03-13T03:47:54;96089.53;;;2.26;61.41
32197;BME280;18697;42.770;23.400;2023-03-13T03:50:26;96080.47;;;2.37;60.81
32197;BME280;18697;42.770;23.400;2023-03-13T03:52:52;96076.50;;;2.48;60.35
32197;BME280;18697;42.770;23.400;2023-03-13T03:55:18;96083.56;;;2.42;60.63
32197;BME280;18697;42.770;23.400;2023-03-13T03:57:43;96081.22;;;2.41;60.65
32197;BME280;18697;42.770;23.400;2023-03-13T04:00:09;96092.56;;;2.43;59.74
32197;BME280;18697;42.770;23.400;2023-03-13T04:02:36;96096.94;;;2.33;59.57
32197;BME280;18697;42.770;23.400;2023-03-13T04:05:02;96101.25;;;2.27;59.12
32197;BME280;18697;42.770;23.400;2023-03-13T04:07:28;96114.94;;;2.30;59.48
32197;BME280;18697;42.770;23.400;2023-03-13T04:09:53;96117.78;;;2.13;59.99
32197;BME280;18697;42.770;23.400;2023-03-13T04:12:19;96110.72;;;2.19;60.15
32197;BME280;18697;42.770;23.400;2023-03-13T04:14:44;96126.72;;;2.27;59.77
32197;BME280;18697;42.770;23.400;2023-03-13T04:17:09;96115.38;;;2.25;59.43
32197;BME280;18697;42.770;23.400;2023-03-13T04:19:35;96124.38;;;2.26;59.79
32197;BME280;18697;42.770;23.400;2023-03-13T04:22:00;96126.00;;;2.13;59.87
32197;BME280;18697;42.770;23.400;2023-03-13T04:24:25;96126.03;;;2.09;60.42
32197;BME280;18697;42.770;23.400;2023-03-13T04:26:51;96128.38;;;2.07;60.54
32197;BME280;18697;42.770;23.400;2023-03-13T04:29:16;96135.44;;;2.01;60.41
32197;BME280;18697;42.770;23.400;2023-03-13T04:31:41;96134.66;;;2.01;60.59
32197;BME280;18697;42.770;23.400;2023-03-13T04:34:07;96142.50;;;1.98;60.74
32197;BME280;18697;42.770;23.400;2023-03-13T04:36:32;96151.91;;;1.94;61.16
32197;BME280;18697;42.770;23.400;2023-03-13T04:38:57;96156.59;;;1.86;60.96
32197;BME280;18697;42.770;23.400;2023-03-13T04:41:23;96164.44;;;1.74;61.69
32197;BME280;18697;42.770;23.400;2023-03-13T04:43:48;96167.19;;;1.77;61.13
32197;BME280;18697;42.770;23.400;2023-03-13T04:46:13;96166.78;;;1.86;60.54
32197;BME280;18697;42.770;23.400;2023-03-13T04:48:39;96164.03;;;1.86;60.18
32197;BME280;18697;42.770;23.400;2023-03-13T04:51:04;96165.25;;;1.67;60.16
32197;BME280;18697;42.770;23.400;2023-03-13T04:53:30;96172.28;;;1.64;60.40
32197;BME280;18697;42.770;23.400;2023-03-13T04:55:55;96176.19;;;1.63;60.55
32197;BME280;18697;42.770;23.400;2023-03-13T04:58:20;96176.97;;;1.64;61.10
32197;BME280;18697;42.770;23.400;2023-03-13T05:00:46;96179.31;;;1.69;61.42
32197;BME280;18697;42.770;23.400;2023-03-13T05:03:11;96180.88;;;1.67;61.17
32197;BME280;18697;42.770;23.400;2023-03-13T05:05:36;96175.41;;;1.67;61.55
32197;BME280;18697;42.770;23.400;2023-03-13T05:08:02;96186.34;;;1.81;61.63
32197;BME280;18697;42.770;23.400;2023-03-13T05:10:27;96180.09;;;1.77;62.76
32197;BME280;18697;42.770;23.400;2023-03-13T05:12:53;96195.75;;;1.80;62.99
32197;BME280;18697;42.770;23.400;2023-03-13T05:15:18;96205.13;;;1.79;62.92
32197;BME280;18697;42.770;23.400;2023-03-13T05:17:43;96200.06;;;1.81;63.07
32197;BME280;18697;42.770;23.400;2023-03-13T05:20:09;96200.44;;;1.93;62.95
32197;BME280;18697;42.770;23.400;2023-03-13T05:22:36;96201.59;;;2.03;62.03
32197;BME280;18697;42.770;23.400;2023-03-13T05:25:01;96214.50;;;2.06;62.55
32197;BME280;18697;42.770;23.400;2023-03-13T05:27:27;96213.72;;;2.09;62.86
32197;BME280;18697;42.770;23.400;2023-03-13T05:29:52;96210.59;;;2.04;62.17
32197;BME280;18697;42.770;23.400;2023-03-13T05:32:17;96210.59;;;2.04;62.83
32197;BME280;18697;42.770;23.400;2023-03-13T05:34:43;96196.63;;;6.62;75.48
32197;BME280;18697;42.770;23.400;2023-03-13T05:37:08;96200.09;;;8.80;66.91
32197;BME280;18697;42.770;23.400;2023-03-13T05:39:33;96204.13;;;11.19;59.44
32197;BME280;18697;42.770;23.400;2023-03-13T05:41:59;96203.25;;;12.61;54.08
32197;BME280;18697;42.770;23.400;2023-03-13T05:44:24;96201.56;;;14.26;50.94
32197;BME280;18697;42.770;23.400;2023-03-13T05:46:49;96207.53;;;15.20;47.74
32197;BME280;18697;42.770;23.400;2023-03-13T05:49:15;96211.63;;;15.49;44.80
32197;BME280;18697;42.770;23.400;2023-03-13T05:51:40;96214.59;;;17.00;42.04
32197;BME280;18697;42.770;23.400;2023-03-13T05:54:05;96216.69;;;17.83;39.53
32197;BME280;18697;42.770;23.400;2023-03-13T05:56:30;96215.50;;;18.26;38.24
32197;BME280;18697;42.770;23.400;2023-03-13T05:58:56;96218.59;;;17.65;37.55
32197;BME280;18697;42.770;23.400;2023-03-13T06:01:21;96214.19;;;17.59;37.67
32197;BME280;18697;42.770;23.400;2023-03-13T06:03:47;96222.97;;;17.66;37.10
32197;BME280;18697;42.770;23.400;2023-03-13T06:06:12;96226.53;;;17.67;36.36
32197;BME280;18697;42.770;23.400;2023-03-13T06:08:37;96229.78;;;17.91;36.33
32197;BME280;18697;42.770;23.400;2023-03-13T06:11:03;96231.75;;;18.11;35.66
32197;BME280;18697;42.770;23.400;2023-03-13T06:13:28;96235.28;;;18.06;35.59
32197;BME280;18697;42.770;23.400;2023-03-13T06:15:55;96232.06;;;17.87;36.01
32197;BME280;18697;42.770;23.400;2023-03-13T06:18:21;96238.44;;;18.19;34.80
32197;BME280;18697;42.770;23.400;2023-03-13T06:20:48;96224.38;;;18.19;34.40
32197;BME280;18697;42.770;23.400;2023-03-13T06:23:14;96242.75;;;18.52;33.91
32197;BME280;18697;42.770;23.400;2023-03-13T06:25:39;96253.38;;;17.99;30.06
32197;BME280;18697;42.770;23.400;2023-03-13T06:28:05;96271.16;;;14.96;30.97
32197;BME280;18697;42.770;23.400;2023-03-13T06:30:30;96260.00;;;12.36;35.16
32197;BME280;18697;42.770;23.400;2023-03-13T06:32:56;96230.91;;;10.82;41.04
32197;BME280;18697;42.770;23.400;2023-03-13T06:35:22;96217.72;;;9.53;44.00
32197;BME280;18697;42.770;23.400;2023-03-13T06:37:47;96200.78;;;7.25;48.21
32197;BME280;18697;42.770;23.400;2023-03-13T06:40:13;96200.13;;;7.02;51.07
32197;BME280;18697;42.770;23.400;2023-03-13T06:42:38;96215.06;;;9.63;52.02
32197;BME280;18697;42.770;23.400;2023-03-13T06:45:04;96220.78;;;10.53;45.54
32197;BME280;18697;42.770;23.400;2023-03-13T06:47:30;96221.47;;;10.45;48.56
32197;BME280;18697;42.770;23.400;2023-03-13T06:49:56;96240.56;;;9.83;44.90
32197;BME280;18697;42.770;23.400;2023-03-13T06:52:21;96238.88;;;9.98;45.84
32197;BME280;18697;42.770;23.400;2023-03-13T06:54:47;96226.19;;;8.67;46.09
32197;BME280;18697;42.770;23.400;2023-03-13T06:57:12;96221.25;;;11.39;48.19
32197;BME280;18697;42.770;23.400;2023-03-13T06:59:37;96213.00;;;12.47;45.64
32197;BME280;18697;42.770;23.400;2023-03-13T07:02:03;96220.25;;;12.63;41.81
32197;BME280;18697;42.770;23.400;2023-03-13T07:04:28;96231.84;;;12.34;40.77
32197;BME280;18697;42.770;23.400;2023-03-13T07:06:54;96219.66;;;11.29;41.50
32197;BME280;18697;42.770;23.400;2023-03-13T07:09:19;96215.19;;;10.66;45.64
32197;BME280;18697;42.770;23.400;2023-03-13T07:11:44;96218.13;;;11.06;43.97
32197;BME280;18697;42.770;23.400;2023-03-13T07:14:10;96210.59;;;10.50;45.13
32197;BME280;18697;42.770;23.400;2023-03-13T07:16:35;96214.69;;;10.80;43.90
32197;BME280;18697;42.770;23.400;2023-03-13T07:19:00;96212.47;;;11.19;45.91
32197;BME280;18697;42.770;23.400;2023-03-13T07:21:26;96206.84;;;11.63;44.77
32197;BME280;18697;42.770;23.400;2023-03-13T07:23:52;96213.00;;;12.56;43.39
32197;BME280;18697;42.770;23.400;2023-03-13T07:26:17;96215.38;;;11.15;40.84
32197;BME280;18697;42.770;23.400;2023-03-13T07:28:43;96208.00;;;12.33;44.50
32197;BME280;18697;42.770;23.400;2023-03-13T07:31:17;96209.09;;;13.36;43.29
32197;BME280;18697;42.770;23.400;2023-03-13T07:33:43;96212.53;;;12.94;41.27
32197;BME280;18697;42.770;23.400;2023-03-13T07:36:13;96206.41;;;14.17;42.08
32197;BME280;18697;42.770;23.400;2023-03-13T07:38:40;96205.09;;;14.98;38.27
32197;BME280;18697;42.770;23.400;2023-03-13T07:41:07;96205.09;;;16.01;37.71
32197;BME280;18697;42.770;23.400;2023-03-13T07:43:32;96210.31;;;16.08;39.43
32197;BME280;18697;42.770;23.400;2023-03-13T07:46:00;96213.41;;;16.10;40.43
32197;BME280;18697;42.770;23.400;2023-03-13T07:48:33;96209.78;;;16.45;38.87
32197;BME280;18697;42.770;23.400;2023-03-13T07:50:59;96220.91;;;16.19;36.70
32197;BME280;18697;42.770;23.400;2023-03-13T07:53:25;96211.63;;;15.49;37.13
32197;BME280;18697;42.770;23.400;2023-03-13T07:56:05;96212.94;;;14.70;33.38
32197;BME280;18697;42.770;23.400;2023-03-13T07:58:36;96209.13;;;13.69;38.61
32197;BME280;18697;42.770;23.400;2023-03-13T08:01:14;96193.47;;;12.65;38.66
32197;BME280;18697;42.770;23.400;2023-03-13T08:03:40;96192.69;;;12.37;38.31
32197;BME280;18697;42.770;23.400;2023-03-13T08:06:11;96193.34;;;12.60;40.40
32197;BME280;18697;42.770;23.400;2023-03-13T08:08:36;96204.91;;;13.13;38.15
32197;BME280;18697;42.770;23.400;2023-03-13T08:11:08;96179.13;;;13.45;44.81
32197;BME280;18697;42.770;23.400;2023-03-13T08:13:34;96186.44;;;14.42;41.30
32197;BME280;18697;42.770;23.400;2023-03-13T08:16:05;96181.97;;;15.27;40.32
32197;BME280;18697;42.770;23.400;2023-03-13T08:18:30;96181.09;;;15.80;39.33
32197;BME280;18697;42.770;23.400;2023-03-13T08:21:10;96187.84;;;15.73;35.79
32197;BME280;18697;42.770;23.400;2023-03-13T08:23:36;96193.75;;;15.75;36.76
32197;BME280;18697;42.770;23.400;2023-03-13T08:28:28;96185.25;;;14.58;39.48
32197;BME280;18697;42.770;23.400;2023-03-13T08:30:54;96184.94;;;15.09;39.77
32197;BME280;18697;42.770;23.400;2023-03-13T08:33:19;96201.81;;;14.85;36.21
32197;BME280;18697;42.770;23.400;2023-03-13T08:35:44;96186.13;;;15.61;38.95
32197;BME280;18697;42.770;23.400;2023-03-13T08:38:10;96192.19;;;15.74;35.49
32197;BME280;18697;42.770;23.400;2023-03-13T08:40:35;96184.53;;;16.04;38.11
32197;BME280;18697;42.770;23.400;2023-03-13T08:43:00;96189.66;;;15.91;36.77
32197;BME280;18697;42.770;23.400;2023-03-13T08:45:26;96187.13;;;16.08;36.35
32197;BME280;18697;42.770;23.400;2023-03-13T08:47:52;96191.81;;;15.82;37.60
32197;BME280;18697;42.770;23.400;2023-03-13T08:50:18;96183.03;;;15.15;35.55
32197;BME280;18697;42.770;23.400;2023-03-13T08:52:44;96182.47;;;14.25;39.02
32197;BME280;18697;42.770;23.400;2023-03-13T08:55:10;96177.00;;;14.93;38.38
32197;BME280;18697;42.770;23.400;2023-03-13T08:57:35;96175.94;;;14.75;35.76
32197;BME280;18697;42.770;23.400;2023-03-13T09:00:01;96184.44;;;13.76;35.86
32197;BME280;18697;42.770;23.400;2023-03-13T09:02:26;96181.53;;;13.20;42.16
32197;BME280;18697;42.770;23.400;2023-03-13T09:04:52;96172.38;;;14.03;40.59
32197;BME280;18697;42.770;23.400;2023-03-13T09:07:17;96173.50;;;15.36;36.37
32197;BME280;18697;42.770;23.400;2023-03-13T09:09:42;96193.66;;;13.59;34.86
32197;BME280;18697;42.770;23.400;2023-03-13T09:12:08;96170.47;;;14.96;35.02
32197;BME280;18697;42.770;23.400;2023-03-13T09:14:34;96179.38;;;14.23;34.18
32197;BME280;18697;42.770;23.400;2023-03-13T09:16:59;96171.75;;;13.33;35.49
32197;BME280;18697;42.770;23.400;2023-03-13T09:19:24;96167.41;;;14.55;38.02
32197;BME280;18697;42.770;23.400;2023-03-13T09:21:50;96165.56;;;14.52;35.23
32197;BME280;18697;42.770;23.400;2023-03-13T09:24:15;96173.63;;;14.89;36.04
32197;BME280;18697;42.770;23.400;2023-03-13T09:26:41;96178.09;;;15.10;36.53
32197;BME280;18697;42.770;23.400;2023-03-13T09:29:06;96182.00;;;14.89;34.43
32197;BME280;18697;42.770;23.400;2023-03-13T09:31:32;96180.91;;;14.57;37.08
32197;BME280;18697;42.770;23.400;2023-03-13T09:33:59;96181.53;;;14.75;35.49
32197;BME280;18697;42.770;23.400;2023-03-13T09:36:25;96186.63;;;14.29;35.69
32197;BME280;18697;42.770;23.400;2023-03-13T09:38:53;96181.75;;;15.01;33.96
32197;BME280;18697;42.770;23.400;2023-03-13T09:43:57;96172.97;;;14.79;34.60
32197;BME280;18697;42.770;23.400;2023-03-13T09:49:44;96174.84;;;15.56;31.29
32197;BME280;18697;42.770;23.400;2023-03-13T09:52:16;96164.78;;;16.14;33.11
32197;BME280;18697;42.770;23.400;2023-03-13T09:55:04;96177.41;;;15.89;33.62
32197;BME280;18697;42.770;23.400;2023-03-13T09:57:54;96160.34;;;17.08;33.44
32197;BME280;18697;42.770;23.400;2023-03-13T10:00:25;96172.88;;;16.26;31.47
32197;BME280;18697;42.770;23.400;2023-03-13T10:05:32;96150.31;;;16.76;33.24
32197;BME280;18697;42.770;23.400;2023-03-13T10:08:18;96141.84;;;17.22;34.38
32197;BME280;18697;42.770;23.400;2023-03-13T10:11:06;96148.31;;;17.60;33.40
32197;BME280;18697;42.770;23.400;2023-03-13T10:18:44;96140.69;;;16.22;31.22
32197;BME280;18697;42.770;23.400;2023-03-13T10:21:25;96124.22;;;17.22;33.55
32197;BME280;18697;42.770;23.400;2023-03-13T10:24:01;96119.03;;;17.40;32.19
32197;BME280;18697;42.770;23.400;2023-03-13T10:26:33;96115.75;;;16.64;33.08
32197;BME280;18697;42.770;23.400;2023-03-13T10:29:21;96112.75;;;16.94;30.65
32197;BME280;18697;42.770;23.400;2023-03-13T10:31:57;96123.81;;;15.81;30.23
32197;BME280;18697;42.770;23.400;2023-03-13T10:34:25;96117.41;;;15.95;30.82
32197;BME280;18697;42.770;23.400;2023-03-13T10:36:58;96103.53;;;15.86;32.98
32197;BME280;18697;42.770;23.400;2023-03-13T10:39:26;96096.75;;;15.58;32.07
32197;BME280;18697;42.770;23.400;2023-03-13T10:41:57;96095.94;;;15.72;31.47
32197;BME280;18697;42.770;23.400;2023-03-13T10:44:30;96088.66;;;15.80;34.61
32197;BME280;18697;42.770;23.400;2023-03-13T10:46:58;96091.56;;;15.36;32.07
32197;BME280;18697;42.770;23.400;2023-03-13T10:49:26;96084.75;;;14.15;33.19
32197;BME280;18697;42.770;23.400;2023-03-13T10:51:59;96081.34;;;12.89;35.85
32197;BME280;18697;42.770;23.400;2023-03-13T10:54:28;96073.06;;;12.34;36.49
32197;BME280;18697;42.770;23.400;2023-03-13T10:59:45;96064.09;;;12.11;37.20
32197;BME280;18697;42.770;23.400;2023-03-13T11:02:34;96054.50;;;12.12;38.21
32197;BME280;18697;42.770;23.400;2023-03-13T11:05:02;96030.78;;;13.71;38.58
32197;BME280;18697;42.770;23.400;2023-03-13T11:07:47;96033.28;;;13.69;35.33
32197;BME280;18697;42.770;23.400;2023-03-13T11:12:47;96036.59;;;14.89;34.37
32197;BME280;18697;42.770;23.400;2023-03-13T11:15:15;96039.59;;;14.56;33.92
32197;BME280;18697;42.770;23.400;2023-03-13T11:17:41;96027.63;;;14.55;34.39
32197;BME280;18697;42.770;23.400;2023-03-13T11:20:35;96023.38;;;14.89;36.37
32197;BME280;18697;42.770;23.400;2023-03-13T11:28:46;96011.91;;;14.43;35.37
32197;BME280;18697;42.770;23.400;2023-03-13T11:39:05;96009.03;;;14.13;33.63
32197;BME280;18697;42.770;23.400;2023-03-13T11:41:44;96003.41;;;13.84;34.20
32197;BME280;18697;42.770;23.400;2023-03-13T11:55:49;95965.09;;;15.72;33.60
32197;BME280;18697;42.770;23.400;2023-03-13T11:58:29;95963.50;;;14.37;33.83
32197;BME280;18697;42.770;23.400;2023-03-13T12:01:11;95949.09;;;13.85;35.99
32197;BME280;18697;42.770;23.400;2023-03-13T12:03:41;95939.09;;;15.31;37.11
32197;BME280;18697;42.770;23.400;2023-03-13T12:09:22;95946.31;;;15.99;33.59
32197;BME280;18697;42.770;23.400;2023-03-13T12:12:02;95937.41;;;15.39;34.50
32197;BME280;18697;42.770;23.400;2023-03-13T12:14:47;95939.59;;;15.50;31.96
32197;BME280;18697;42.770;23.400;2023-03-13T12:17:35;95937.75;;;16.08;32.95
32197;BME280;18697;42.770;23.400;2023-03-13T12:20:17;95937.66;;;15.21;32.39
32197;BME280;18697;42.770;23.400;2023-03-13T12:28:24;95919.69;;;14.43;35.58
32197;BME280;18697;42.770;23.400;2023-03-13T12:33:59;95914.19;;;15.54;35.21
32197;BME280;18697;42.770;23.400;2023-03-13T12:36:32;95921.13;;;15.38;31.85
32197;BME280;18697;42.770;23.400;2023-03-13T12:45:00;95927.13;;;16.69;32.13
32197;BME280;18697;42.770;23.400;2023-03-13T12:50:26;95935.13;;;18.38;29.52
32197;BME280;18697;42.770;23.400;2023-03-13T12:58:14;95944.00;;;17.12;29.20
32197;BME280;18697;42.770;23.400;2023-03-13T13:00:43;95940.84;;;16.93;29.93
32197;BME280;18697;42.770;23.400;2023-03-13T13:06:13;95928.22;;;18.39;32.07
32197;BME280;18697;42.770;23.400;2023-03-13T13:08:42;95919.84;;;18.78;30.61
32197;BME280;18697;42.770;23.400;2023-03-13T13:17:01;95919.50;;;19.32;28.69
32197;BME280;18697;42.770;23.400;2023-03-13T13:32:54;95912.03;;;17.95;32.18
32197;BME280;18697;42.770;23.400;2023-03-13T13:35:31;95891.69;;;18.50;31.85
32197;BME280;18697;42.770;23.400;2023-03-13T13:43:23;95885.81;;;18.48;28.64
32197;BME280;18697;42.770;23.400;2023-03-13T13:45:59;95910.59;;;17.14;30.50
32197;BME280;18697;42.770;23.400;2023-03-13T13:48:26;95913.25;;;16.60;29.58
32197;BME280;18697;42.770;23.400;2023-03-13T14:02:04;95891.38;;;15.81;30.29
32197;BME280;18697;42.770;23.400;2023-03-13T14:05:00;95875.50;;;15.98;33.93
32197;BME280;18697;42.770;23.400;2023-03-13T14:10:20;95881.00;;;16.13;30.47
32197;BME280;18697;42.770;23.400;2023-03-13T14:12:52;95874.94;;;15.68;32.33
32197;BME280;18697;42.770;23.400;2023-03-13T14:15:26;95876.06;;;15.36;30.46
32197;BME280;18697;42.770;23.400;2023-03-13T14:17:54;95862.84;;;16.34;34.48
32197;BME280;18697;42.770;23.400;2023-03-13T14:23:09;95870.66;;;15.73;31.94
32197;BME280;18697;42.770;23.400;2023-03-13T14:25:47;95867.22;;;15.63;30.50
32197;BME280;18697;42.770;23.400;2023-03-13T14:28:16;95863.84;;;16.31;33.53
32197;BME280;18697;42.770;23.400;2023-03-13T14:30:44;95864.44;;;16.72;30.57
32197;BME280;18697;42.770;23.400;2023-03-13T14:33:10;95863.91;;;16.42;30.27
32197;BME280;18697;42.770;23.400;2023-03-13T14:35:36;95871.84;;;16.44;31.92
32197;BME280;18697;42.770;23.400;2023-03-13T14:38:02;95854.63;;;16.94;31.78
32197;BME280;18697;42.770;23.400;2023-03-13T14:40:32;95856.13;;;17.37;32.30
32197;BME280;18697;42.770;23.400;2023-03-13T14:43:00;95845.59;;;17.97;32.71
32197;BME280;18697;42.770;23.400;2023-03-13T14:45:33;95853.81;;;18.06;31.57
32197;BME280;18697;42.770;23.400;2023-03-13T14:48:20;95857.44;;;18.41;30.52
32197;BME280;18697;42.770;23.400;2023-03-13T14:50:48;95864.06;;;18.43;28.53
32197;BME280;18697;42.770;23.400;2023-03-13T14:53:20;95869.66;;;18.10;27.58
32197;BME280;18697;42.770;23.400;2023-03-13T14:55:47;95880.06;;;17.27;27.35
32197;BME280;18697;42.770;23.400;2023-03-13T15:00:45;95866.03;;;17.27;28.91
32197;BME280;18697;42.770;23.400;2023-03-13T15:05:45;95863.63;;;16.66;30.07
32197;BME280;18697;42.770;23.400;2023-03-13T15:08:22;95851.94;;;17.16;30.99
32197;BME280;18697;42.770;23.400;2023-03-13T15:10:48;95857.94;;;16.61;29.57
32197;BME280;18697;42.770;23.400;2023-03-13T15:15:56;95860.59;;;15.40;30.38
32197;BME280;18697;42.770;23.400;2023-03-13T15:18:27;95856.47;;;15.36;34.53
32197;BME280;18697;42.770;23.400;2023-03-13T15:20:56;95863.16;;;14.83;31.27
32197;BME280;18697;42.770;23.400;2023-03-13T15:23:22;95836.72;;;14.84;35.58